White River Bluffs, Indiana
Current Conditions -  °F | °C
As of 2:53 PM on Thursday 27 Nov 2014 (Local Time) from KBMG Reporting Station
Overcast Overcast  
Wind Chill: 22°   Ceiling: 2000
Heat Index: 28°   Visibility: 8mi
Dew Point: 21°   Wind: 6mph
Humidity: 75%   Direction: 290°WNW
Pressure: 30.35"   Gusts: NA
Location:  38.8737°N, 86.4563°W
Report Text: KBMG 271953Z 29005KT 8SM OVC020 M02/M06 A3035 RMK AO2 SLP286 T10221061
Loading
Personal Weather Stations






























Interactive Weather Map New forecast layout! Learn more

10-Day Weather Forecast

Advertisements
Track Severe Weather on mobile